Time;durP1;ratioP1;P1;durP2;ratioP2;P2;SDS_P1;SDS_P2;PMS_P1;PMS_P2;Temp;Humidity;BMP_temperature;BMP_pressure;BME280_temperature;BME280_humidity;BME280_pressure;Samples;Min_cycle;Max_cycle;Signal;HPM_P1;HPM_P2
2020/12/19 00:01:35;;;;;;;142.97;49.70;;;;;;;1.89;80.73;101666.14;5229680;56;1138391;-89
2020/12/19 00:06:45;;;;;;;119.53;41.67;;;;;;;1.89;80.73;101666.14;5269068;56;21383;-89
2020/12/19 00:11:51;;;;;;;85.27;34.20;;;;;;;1.92;80.55;101658.69;5269065;56;21171;-89
2020/12/19 00:16:57;;;;;;;97.07;39.03;;;;;;;1.91;80.94;101650.45;5270415;56;21062;-89
2020/12/19 00:22:03;;;;;;;63.27;30.50;;;;;;;1.92;81.21;101654.33;5270650;56;21144;-89
2020/12/19 00:27:12;;;;;;;79.33;31.33;;;;;;;1.95;81.32;101652.10;5270730;56;21172;-89
2020/12/19 00:32:17;;;;;;;98.13;40.90;;;;;;;2.02;81.38;101659.73;5210607;56;1134261;-89
2020/12/19 00:37:24;;;;;;;163.67;75.40;;;;;;;2.07;81.15;101665.70;5170081;56;1138328;-89
2020/12/19 00:42:30;;;;;;;131.72;50.70;;;;;;;2.01;80.59;101663.67;5170004;56;1140193;-89
2020/12/19 00:47:38;;;;;;;128.83;50.13;;;;;;;1.83;80.37;101658.48;5251317;56;1136048;-89
2020/12/19 00:52:43;;;;;;;137.60;54.93;;;;;;;1.84;80.75;101660.61;5271145;56;21090;-87
2020/12/19 00:57:49;;;;;;;107.23;44.57;;;;;;;1.90;81.09;101656.11;5231495;56;1136113;-87
2020/12/19 01:02:54;;;;;;;106.47;43.78;;;;;;;1.95;81.13;101655.57;5170947;56;1140271;-87
2020/12/19 01:08:00;;;;;;;74.60;35.17;;;;;;;1.95;80.55;101661.23;5231020;56;1140016;-87
2020/12/19 01:13:05;;;;;;;67.70;28.20;;;;;;;1.87;80.03;101660.54;5272043;56;21137;-88
2020/12/19 01:18:11;;;;;;;76.10;29.83;;;;;;;1.70;79.44;101671.36;5272013;56;21177;-88
2020/12/19 01:23:16;;;;;;;74.83;36.37;;;;;;;1.53;79.48;101670.91;5271670;56;21132;-88
2020/12/19 01:28:22;;;;;;;87.67;36.77;;;;;;;1.34;79.05;101671.30;5271088;55;21133;-88
2020/12/19 01:33:27;;;;;;;87.93;37.10;;;;;;;1.24;79.80;101667.58;5270305;56;21136;-88
2020/12/19 01:38:33;;;;;;;85.40;37.20;;;;;;;1.15;79.92;101666.48;5271097;56;21121;-88
2020/12/19 01:43:59;;;;;;;78.20;34.80;;;;;;;1.20;80.55;101663.35;5271317;56;21081;-88
2020/12/19 01:49:05;;;;;;;69.40;33.30;;;;;;;1.28;80.71;101666.20;5210007;56;1134493;-88
2020/12/19 01:54:11;;;;;;;77.30;32.67;;;;;;;1.24;80.33;101659.33;5209975;56;1138253;-88
2020/12/19 01:59:18;;;;;;;80.17;36.30;;;;;;;1.21;80.61;101660.72;5189817;56;1138261;-88
2020/12/19 02:04:26;;;;;;;83.75;34.73;;;;;;;1.15;80.79;101654.31;5250132;56;1136218;-89
2020/12/19 02:09:38;;;;;;;81.10;35.20;;;;;;;1.15;81.07;101651.71;5270052;56;21472;-88
2020/12/19 02:14:43;;;;;;;79.50;34.33;;;;;;;1.22;81.09;101651.98;5269747;56;21133;-88
2020/12/19 02:19:49;;;;;;;71.43;31.77;;;;;;;1.27;81.14;101654.05;5269480;56;21082;-89
2020/12/19 02:24:54;;;;;;;75.87;33.40;;;;;;;1.14;80.68;101644.78;5270622;56;21188;-89
2020/12/19 02:30:00;;;;;;;68.67;31.57;;;;;;;1.09;80.85;101645.75;5284210;56;21081;-89
2020/12/19 02:35:05;;;;;;;69.20;31.50;;;;;;;1.18;81.30;101637.33;5285261;56;21158;-89
2020/12/19 02:40:11;;;;;;;77.93;33.77;;;;;;;1.19;81.00;101634.27;5285320;56;21095;-89
2020/12/19 02:51:53;;;;;;;68.12;32.17;;;;;;;0.95;81.59;101624.76;5284295;56;1138085;-87
2020/12/19 02:56:58;;;;;;;70.07;32.00;;;;;;;0.85;81.63;101614.13;5166204;56;1138346;-88
2020/12/19 03:02:04;;;;;;;83.17;33.90;;;;;;;0.82;81.69;101615.92;5180583;55;1138258;-89
2020/12/19 03:07:09;;;;;;;70.80;25.77;;;;;;;0.85;82.14;101623.68;5284775;56;21133;-89
2020/12/19 03:12:15;;;;;;;73.43;31.77;;;;;;;0.88;82.47;101627.09;5202575;56;1134269;-88
2020/12/19 03:17:20;;;;;;;77.43;33.23;;;;;;;0.92;82.90;101616.14;5182494;55;1138414;-89
2020/12/19 03:22:26;;;;;;;72.33;32.37;;;;;;;0.91;83.13;101611.41;5201760;55;1138423;-88
2020/12/19 03:27:31;;;;;;;74.50;33.27;;;;;;;0.92;83.40;101606.58;5180380;55;1138406;-88
2020/12/19 03:32:37;;;;;;;79.27;30.03;;;;;;;0.94;83.47;101589.18;5281297;56;21064;-88
2020/12/19 03:37:42;;;;;;;83.27;34.40;;;;;;;0.92;83.93;101592.26;5281373;56;21131;-89
2020/12/19 03:42:48;;;;;;;74.67;30.93;;;;;;;0.90;84.31;101586.70;5281201;56;21430;-88
2020/12/19 03:47:53;;;;;;;69.13;32.13;;;;;;;0.89;84.49;101581.93;5180259;55;1134309;-87
2020/12/19 03:52:59;;;;;;;78.80;35.03;;;;;;;0.83;84.05;101574.23;5180027;55;1138227;-89
2020/12/19 03:58:04;;;;;;;76.57;33.05;;;;;;;0.83;84.37;101572.07;5219778;55;1138342;-88
2020/12/19 04:03:10;;;;;;;74.27;31.67;;;;;;;0.81;84.09;101585.56;5219534;55;1138256;-88
2020/12/19 04:08:15;;;;;;;68.07;30.77;;;;;;;0.73;84.16;101578.37;5280255;56;21093;-88
2020/12/19 04:13:21;;;;;;;78.27;33.90;;;;;;;0.75;84.23;101582.66;5280976;56;21490;-88
2020/12/19 04:18:27;;;;;;;78.27;34.07;;;;;;;0.69;84.56;101578.86;5280879;56;21115;-88
2020/12/19 04:23:32;;;;;;;67.30;29.47;;;;;;;0.68;84.26;101575.41;5240454;55;1134372;-88
2020/12/19 04:28:38;;;;;;;65.63;27.83;;;;;;;0.69;84.24;101569.75;5177203;55;1138270;-88
2020/12/19 04:33:43;;;;;;;69.37;30.40;;;;;;;0.52;84.60;101553.61;5201069;55;1138458;-88
2020/12/19 04:38:49;;;;;;;58.93;26.67;;;;;;;0.50;84.43;101566.65;5280931;55;21116;-88
2020/12/19 04:43:55;;;;;;;49.40;22.93;;;;;;;0.43;84.21;101570.72;5179576;56;1134082;-88
2020/12/19 04:49:01;;;;;;;55.60;23.07;;;;;;;0.41;84.25;101571.19;5121931;57;21078;-88
2020/12/19 04:54:09;;;;;;;55.73;26.10;;;;;;;0.39;84.51;101568.61;4999145;57;1134350;-89
2020/12/19 04:59:15;;;;;;;57.37;24.97;;;;;;;0.36;84.39;101572.56;5220415;56;1136310;-88
2020/12/19 05:04:20;;;;;;;36.47;17.30;;;;;;;0.36;84.65;101569.95;5151257;56;1138427;-89
2020/12/19 05:09:27;;;;;;;44.00;21.30;;;;;;;0.37;84.81;101563.88;5169469;56;1138238;-88
2020/12/19 05:14:36;;;;;;;33.40;16.87;;;;;;;0.32;84.86;101561.34;5232800;56;1138396;-89
2020/12/19 05:19:42;;;;;;;61.05;31.12;;;;;;;0.31;84.98;101559.63;5173767;56;1138342;-89
2020/12/19 05:24:48;;;;;;;52.30;25.57;;;;;;;0.36;84.81;101566.05;5244798;56;21148;-89
2020/12/19 05:29:54;;;;;;;25.23;10.90;;;;;;;0.38;84.85;101573.39;5258686;56;21536;-88
2020/12/19 05:34:59;;;;;;;44.35;20.57;;;;;;;0.42;84.98;101575.06;5153644;56;1134190;-89
2020/12/19 05:40:14;;;;;;;48.40;18.30;;;;;;;0.47;84.83;101573.20;5161340;56;1138287;-89
2020/12/19 05:45:24;;;;;;;46.37;21.60;;;;;;;0.48;84.76;101568.42;5261412;56;21155;-88
2020/12/19 05:50:29;;;;;;;89.93;53.40;;;;;;;0.55;84.92;101577.84;5261288;56;21139;-89
2020/12/19 05:55:35;;;;;;;48.27;22.27;;;;;;;0.62;84.74;101571.61;5262935;56;21139;-89
2020/12/19 06:00:43;;;;;;;53.20;24.53;;;;;;;0.61;84.58;101582.91;5249699;56;21142;-89
2020/12/19 06:05:48;;;;;;;51.93;20.37;;;;;;;0.57;84.78;101585.63;5253670;56;21474;-89
2020/12/19 06:10:57;;;;;;;51.93;20.90;;;;;;;0.56;84.86;101583.91;5249150;56;21147;-88
2020/12/19 06:16:13;;;;;;;59.93;24.57;;;;;;;0.52;85.07;101585.70;5237355;56;1134199;-88
2020/12/19 06:21:19;;;;;;;28.10;12.40;;;;;;;0.55;85.17;101583.48;5154355;56;1138338;-88
2020/12/19 06:26:37;;;;;;;47.27;18.73;;;;;;;0.57;85.15;101576.51;5258963;56;21076;-89
2020/12/19 06:31:43;;;;;;;54.20;20.13;;;;;;;0.55;85.05;101588.25;5193026;56;1134154;-88
2020/12/19 06:36:51;;;;;;;39.57;16.80;;;;;;;0.53;85.38;101587.86;5143892;56;1138489;-88
2020/12/19 06:41:58;;;;;;;47.13;21.03;;;;;;;0.49;85.99;101608.31;5154011;56;1138322;-89
2020/12/19 06:47:07;;;;;;;50.88;22.05;;;;;;;0.52;85.54;101610.87;5157219;56;1138421;-89
2020/12/19 06:52:15;;;;;;;49.83;20.03;;;;;;;0.57;85.74;101612.95;5181190;56;1138140;-89
2020/12/19 06:57:33;;;;;;;35.73;17.90;;;;;;;0.61;85.46;101619.34;5263057;56;21130;-89
2020/12/19 07:02:52;;;;;;;46.23;18.03;;;;;;;0.63;85.60;101612.38;5254600;56;21117;-89
2020/12/19 07:08:20;;;;;;;267.90;101.97;;;;;;;0.61;85.21;101614.62;5225977;57;21299;-89
2020/12/19 07:13:46;;;;;;;81.93;31.17;;;;;;;0.63;85.38;101620.63;5080117;58;21194;-89
2020/12/19 07:18:51;;;;;;;38.20;17.73;;;;;;;0.66;85.71;101617.52;5070408;58;21146;-89
2020/12/19 07:23:57;;;;;;;41.20;18.23;;;;;;;0.60;86.34;101618.97;4979822;57;1134243;-89
2020/12/19 07:29:03;;;;;;;39.65;18.55;;;;;;;0.57;85.70;101621.62;4958802;58;1138473;-89
2020/12/19 07:34:10;;;;;;;42.83;14.93;;;;;;;0.60;86.17;101618.97;4946757;59;1136361;-88
2020/12/19 07:39:18;;;;;;;40.70;18.37;;;;;;;0.61;86.02;101625.03;4984416;59;21516;-88
2020/12/19 07:44:23;;;;;;;44.77;19.43;;;;;;;0.59;85.82;101625.05;4959199;59;21492;-89
2020/12/19 07:49:36;;;;;;;54.57;20.50;;;;;;;0.67;85.81;101622.29;5041076;58;21145;-89
2020/12/19 07:54:44;;;;;;;33.30;15.07;;;;;;;0.70;85.77;101620.49;5087039;58;21217;-89
2020/12/19 07:59:53;;;;;;;35.07;15.13;;;;;;;0.64;85.84;101618.44;5007178;57;1134260;-89
2020/12/19 08:05:00;;;;;;;39.50;17.53;;;;;;;0.58;86.16;101619.87;4998582;57;1138454;-89
2020/12/19 08:10:15;;;;;;;30.93;15.47;;;;;;;0.53;86.18;101619.95;5098277;58;21158;-88
2020/12/19 08:15:31;;;;;;;31.97;13.27;;;;;;;0.57;86.27;101622.92;4716612;60;1134193;-90
2020/12/19 08:20:40;;;;;;;51.47;21.63;;;;;;;0.53;86.55;101625.59;4817001;61;1138537;-90
2020/12/19 08:25:54;;;;;;;85.33;36.13;;;;;;;0.53;86.66;101629.50;4756459;61;1138562;-90
2020/12/19 08:31:00;;;;;;;46.85;22.42;;;;;;;0.50;86.54;101634.31;4771819;58;1138716;-90
2020/12/19 08:36:09;;;;;;;52.90;20.77;;;;;;;0.54;86.88;101633.38;5096273;57;1147636;-90
2020/12/19 08:41:22;;;;;;;25.90;13.97;;;;;;;0.61;86.74;101629.77;5084305;56;1138409;-90
2020/12/19 08:46:30;;;;;;;220.40;81.17;;;;;;;0.64;87.21;101627.55;5178146;57;21162;-90
2020/12/19 08:51:40;;;;;;;155.60;60.03;;;;;;;0.63;86.60;101627.13;5183503;57;21066;-90
2020/12/19 08:56:44;;;;;;;243.70;90.87;;;;;;;0.65;86.84;101630.56;5256030;56;21138;-91
2020/12/19 09:01:49;;;;;;;139.60;56.10;;;;;;;0.71;86.69;101626.56;5266170;56;21297;-91
2020/12/19 09:06:55;;;;;;;99.13;42.03;;;;;;;0.75;86.78;101619.11;5175122;56;1136393;-91
2020/12/19 09:12:13;;;;;;;122.97;45.07;;;;;;;0.74;86.89;101623.91;5124650;56;1138354;-92
2020/12/19 09:17:32;;;;;;;197.57;63.77;;;;;;;0.74;87.08;101623.91;5153766;56;21142;-91
2020/12/19 09:22:38;;;;;;;92.47;27.77;;;;;;;0.77;87.02;101613.84;5203983;56;1136455;-91
2020/12/19 09:27:43;;;;;;;202.27;67.23;;;;;;;0.77;87.13;101618.61;4966245;58;1138292;-92
2020/12/19 09:32:49;;;;;;;406.87;114.33;;;;;;;0.79;87.30;101617.28;5095430;56;1140492;-89
2020/12/19 09:37:55;;;;;;;105.13;32.07;;;;;;;0.82;86.97;101609.41;5089514;56;1142886;-91
2020/12/19 09:43:01;;;;;;;209.30;58.87;;;;;;;0.83;87.02;101604.17;5152956;56;1140304;-91
2020/12/19 09:48:07;;;;;;;142.33;43.43;;;;;;;0.82;87.18;101597.70;5192779;57;21127;-90
2020/12/19 09:53:12;;;;;;;159.10;43.53;;;;;;;0.82;87.32;101592.05;5114072;56;1136500;-89
2020/12/19 09:58:20;;;;;;;124.53;38.42;;;;;;;0.85;87.30;101592.44;5071239;56;1140373;-92
2020/12/19 10:03:27;;;;;;;195.00;51.27;;;;;;;0.90;87.26;101589.30;5096368;56;1140235;-92
2020/12/19 10:08:37;;;;;;;171.30;53.23;;;;;;;0.90;87.35;101591.91;5072560;56;1140509;-92
2020/12/19 10:13:42;;;;;;;113.23;35.20;;;;;;;0.85;87.78;101586.78;5131542;56;1140642;-94
2020/12/19 10:18:55;;;;;;;53.70;23.57;;;;;;;0.89;87.75;101578.02;5127970;56;1140249;-93
2020/12/19 10:24:01;;;;;;;173.32;54.53;;;;;;;0.95;87.51;101578.31;5146268;56;1138369;-92
2020/12/19 10:29:06;;;;;;;29.57;11.88;;;;;;;0.99;88.00;101573.02;5116992;56;1140474;-92
2020/12/19 10:34:12;;;;;;;105.32;42.53;;;;;;;1.04;87.66;101565.12;5113570;56;1138508;-92
2020/12/19 10:39:31;;;;;;;154.37;54.33;;;;;;;1.07;87.65;101572.84;5178307;56;1140303;-93
2020/12/19 10:45:17;;;;;;;183.33;64.37;;;;;;;1.17;87.50;101559.19;5178930;55;1140376;-92
2020/12/19 10:50:38;;;;;;;47.67;18.97;;;;;;;1.22;87.51;101565.98;5165559;56;1140379;-92
2020/12/19 10:56:03;;;;;;;138.97;56.70;;;;;;;1.24;87.61;101556.39;5129581;55;1138589;-93
2020/12/19 11:01:12;;;;;;;43.23;20.30;;;;;;;1.25;87.52;101556.81;5116328;55;1140710;-94
2020/12/19 11:06:22;;;;;;;55.03;23.45;;;;;;;1.28;87.58;101556.75;5163903;56;1138520;-87
2020/12/19 11:18:17;;;;;;;47.23;21.90;;;;;;;1.29;88.02;101556.30;5162160;55;1138495;-86
2020/12/19 11:23:24;;;;;;;59.40;24.32;;;;;;;1.38;87.56;101551.72;5187491;55;1138575;-93
2020/12/19 11:28:29;;;;;;;59.33;21.13;;;;;;;1.38;87.56;101551.72;5177761;55;1138535;-89
2020/12/19 11:33:35;;;;;;;55.23;22.83;;;;;;;1.41;87.83;101549.05;5206146;56;1138217;-89
2020/12/19 11:38:41;;;;;;;62.07;21.30;;;;;;;1.49;87.71;101547.58;5198956;55;1138257;-91
2020/12/19 11:43:46;;;;;;;187.47;68.47;;;;;;;1.50;87.87;101550.60;5184684;55;1138417;-91
2020/12/19 11:48:52;;;;;;;78.17;31.40;;;;;;;1.54;87.64;101543.54;5244314;55;1138389;-91
2020/12/19 11:53:59;;;;;;;114.77;42.13;;;;;;;1.60;87.57;101544.27;5222865;55;1138408;-91
2020/12/19 12:08:47;;;;;;;56.87;29.90;;;;;;;1.73;88.60;101544.37;5187412;54;46049;-88
2020/12/19 12:13:53;;;;;;;80.20;41.33;;;;;;;1.72;88.10;101540.05;5025632;56;1134618;-90
2020/12/19 12:18:58;;;;;;;56.57;27.27;;;;;;;1.74;87.72;101543.47;5041671;55;1138482;-89
2020/12/19 12:24:05;;;;;;;49.43;20.83;;;;;;;1.81;87.64;101555.93;5045622;56;1138830;-89
2020/12/19 12:29:11;;;;;;;67.58;28.15;;;;;;;1.88;87.68;101554.86;4969161;56;1138815;-88
2020/12/19 12:34:17;;;;;;;66.00;28.03;;;;;;;1.87;87.42;101547.08;4954825;58;1138797;-91
2020/12/19 12:39:22;;;;;;;113.07;45.37;;;;;;;1.88;87.27;101541.82;4964491;57;1138434;-90
2020/12/19 12:44:28;;;;;;;79.57;31.77;;;;;;;1.89;87.19;101546.14;4954195;57;1140578;-91
2020/12/19 12:49:35;;;;;;;70.15;30.43;;;;;;;1.95;87.29;101538.63;4949406;57;1138435;-91
2020/12/19 12:54:41;;;;;;;53.77;26.17;;;;;;;1.97;87.33;101535.09;4951458;57;1138322;-91
2020/12/19 12:59:47;;;;;;;66.97;28.17;;;;;;;1.96;87.26;101519.02;4960069;57;1138792;-91
2020/12/19 13:04:52;;;;;;;56.87;25.50;;;;;;;1.94;87.01;101516.03;4945093;57;1138352;-90
2020/12/19 13:09:58;;;;;;;55.80;25.00;;;;;;;1.88;86.96;101509.22;4900731;57;1138751;-91
2020/12/19 13:15:04;;;;;;;70.53;27.57;;;;;;;1.92;87.00;101513.91;4884543;58;1138283;-88
2020/12/19 13:20:10;;;;;;;62.20;27.70;;;;;;;1.89;87.28;101510.08;4887944;58;1138474;-90
2020/12/19 13:25:15;;;;;;;59.77;24.60;;;;;;;1.87;87.41;101504.03;4903824;58;1138459;-91
2020/12/19 13:30:21;;;;;;;63.63;27.33;;;;;;;1.89;87.33;101498.33;4894308;58;1138513;-90
2020/12/19 13:35:27;;;;;;;58.65;27.90;;;;;;;1.90;87.25;101491.78;4895827;58;1138609;-91
2020/12/19 13:40:33;;;;;;;92.50;38.27;;;;;;;1.87;87.90;101495.77;4901680;58;1138285;-91
2020/12/19 13:45:38;;;;;;;58.37;27.00;;;;;;;1.90;87.39;101507.43;4908265;58;1138534;-91
2020/12/19 13:51:13;;;;;;;38.80;16.63;;;;;;;1.91;87.46;101509.14;4901002;59;1138267;-91
2020/12/19 13:56:41;;;;;;;74.72;28.62;;;;;;;1.96;87.59;101517.72;4677137;60;1139141;-91
2020/12/19 14:02:18;;;;;;;61.37;27.67;;;;;;;1.92;87.74;101524.34;4743723;60;1138948;-91
2020/12/19 14:07:29;;;;;;;55.40;24.25;;;;;;;1.93;87.51;101525.61;4751506;60;1138340;-92
2020/12/19 14:12:59;;;;;;;62.03;27.60;;;;;;;1.91;87.34;101531.31;4736601;60;1138413;-92
2020/12/19 14:18:17;;;;;;;62.17;29.97;;;;;;;1.96;87.66;101527.30;4711204;60;1138217;-92
2020/12/19 14:24:04;;;;;;;82.67;34.60;;;;;;;1.96;87.47;101527.30;4747301;59;1138436;-92
2020/12/19 14:29:23;;;;;;;61.06;30.40;;;;;;;1.94;87.76;101526.47;4790273;59;1139286;-91
2020/12/19 14:35:08;;;;;;;74.07;35.27;;;;;;;2.01;87.60;101527.56;4989336;56;1138416;-89
2020/12/19 14:40:32;;;;;;;81.23;38.43;;;;;;;2.01;87.60;101527.56;5074698;57;1138233;-88
2020/12/19 14:45:41;;;;;;;60.87;31.77;;;;;;;2.03;87.58;101533.59;5107825;57;21113;-88
2020/12/19 14:50:47;;;;;;;51.87;25.83;;;;;;;2.05;87.50;101543.55;5107611;57;21161;-88
2020/12/19 14:55:52;;;;;;;56.33;27.37;;;;;;;2.06;87.41;101541.35;5108459;57;21463;-87
2020/12/19 15:00:58;;;;;;;73.90;36.53;;;;;;;2.00;87.24;101541.50;5068898;57;1134157;-88
2020/12/19 15:06:08;;;;;;;81.87;39.83;;;;;;;1.97;87.46;101535.53;5008032;57;1138239;-88
2020/12/19 15:11:16;;;;;;;87.75;45.75;;;;;;;1.97;87.32;101540.75;4994026;57;1138756;-87
2020/12/19 15:16:22;;;;;;;107.27;54.20;;;;;;;1.96;87.96;101542.95;4927899;58;1138604;-87
2020/12/19 15:21:28;;;;;;;40.57;17.63;;;;;;;1.97;87.57;101557.70;5047206;57;1138520;-87
2020/12/19 15:26:34;;;;;;;74.20;30.10;;;;;;;1.97;87.72;101565.08;5049751;57;1138308;-88
2020/12/19 15:31:40;;;;;;;104.30;46.67;;;;;;;1.88;87.29;101557.47;5091042;56;1138967;-89
2020/12/19 15:36:50;;;;;;;78.80;32.23;;;;;;;1.84;87.51;101553.66;5032884;57;1140513;-88
2020/12/19 15:41:56;;;;;;;47.23;16.93;;;;;;;1.81;87.54;101544.64;5034188;57;1138382;-88
2020/12/19 15:47:02;;;;;;;311.80;91.07;;;;;;;1.79;87.85;101539.91;5031196;58;1134259;-88
2020/12/19 15:52:07;;;;;;;562.37;187.93;;;;;;;1.80;87.55;101541.17;5089399;58;21463;-88
2020/12/19 15:57:13;;;;;;;217.60;76.47;;;;;;;1.88;87.59;101542.27;5009211;58;1138451;-88
2020/12/19 16:02:18;;;;;;;382.60;110.67;;;;;;;1.96;87.62;101534.67;4953035;57;1140604;-88
2020/12/19 16:07:24;;;;;;;428.87;124.67;;;;;;;1.94;87.56;101541.67;5054916;57;1143164;-88
2020/12/19 16:12:33;;;;;;;391.97;112.57;;;;;;;1.91;87.60;101544.36;5086853;57;1165576;-86
2020/12/19 16:17:38;;;;;;;77.93;31.43;;;;;;;1.91;87.56;101547.41;5011762;57;1142755;-89
2020/12/19 16:22:45;;;;;;;386.03;99.80;;;;;;;1.94;87.64;101549.50;4958882;58;1138252;-91
2020/12/19 16:27:50;;;;;;;368.55;97.45;;;;;;;1.93;87.43;101545.63;5022867;58;1140485;-88
2020/12/19 16:33:03;;;;;;;239.30;67.80;;;;;;;1.89;87.46;101544.84;4933171;58;1140645;-88
2020/12/19 16:38:09;;;;;;;77.87;29.55;;;;;;;1.87;87.60;101548.37;4975339;58;1140392;-88
2020/12/19 16:43:21;;;;;;;348.93;106.05;;;;;;;1.85;87.94;101546.25;5038815;58;1138411;-88
2020/12/19 16:48:26;;;;;;;193.23;69.33;;;;;;;1.87;87.65;101556.20;4979224;57;1142708;-88
2020/12/19 16:53:32;;;;;;;85.97;38.03;;;;;;;1.85;87.74;101551.47;5095092;57;1140349;-89
2020/12/19 16:58:38;;;;;;;144.03;55.43;;;;;;;1.84;88.10;101548.45;5051777;57;1138292;-90
2020/12/19 17:03:43;;;;;;;213.00;66.17;;;;;;;1.85;87.67;101551.47;5077425;57;1138483;-88
2020/12/19 17:08:49;;;;;;;204.80;57.97;;;;;;;1.86;87.62;101535.78;5024629;58;21241;-89
2020/12/19 17:13:57;;;;;;;199.00;63.47;;;;;;;1.83;87.49;101532.42;4948742;57;1136491;-89
2020/12/19 17:19:03;;;;;;;128.57;54.73;;;;;;;1.83;87.64;101531.12;4948242;57;1140449;-89
2020/12/19 17:24:08;;;;;;;139.97;45.83;;;;;;;1.83;87.97;101533.73;5093210;58;21173;-88
2020/12/19 17:29:14;;;;;;;78.07;32.40;;;;;;;1.85;87.71;101549.72;5073610;58;1136237;-88
2020/12/19 17:34:19;;;;;;;163.95;52.43;;;;;;;1.85;87.92;101551.02;4993317;58;1138544;-89
2020/12/19 17:39:26;;;;;;;124.13;39.20;;;;;;;1.88;87.66;101550.95;4995725;58;1140373;-87
2020/12/19 17:44:31;;;;;;;242.10;73.80;;;;;;;1.93;87.71;101558.67;4977691;58;1140939;-89
2020/12/19 17:49:37;;;;;;;94.40;36.73;;;;;;;1.91;87.76;101553.48;4952828;58;1140599;-89
2020/12/19 17:54:42;;;;;;;171.73;52.23;;;;;;;1.93;87.80;101554.31;4995915;58;1138425;-89
2020/12/19 17:59:48;;;;;;;250.37;68.07;;;;;;;1.96;87.68;101550.33;5055503;58;21120;-88
2020/12/19 18:04:53;;;;;;;255.23;69.33;;;;;;;2.03;87.75;101543.18;5051889;59;21128;-88
2020/12/19 18:09:59;;;;;;;205.57;66.70;;;;;;;2.04;87.90;101537.92;5044092;59;21088;-87
2020/12/19 18:15:05;;;;;;;135.50;53.20;;;;;;;2.03;88.05;101540.12;5049052;58;1136342;-88
2020/12/19 18:20:14;;;;;;;105.43;46.57;;;;;;;2.02;87.89;101526.67;5008673;58;1140475;-89
2020/12/19 18:25:19;;;;;;;121.45;53.80;;;;;;;2.07;88.00;101527.86;5003912;58;1140443;-88
2020/12/19 18:30:25;;;;;;;65.83;30.90;;;;;;;2.11;87.95;101530.80;5008379;57;1140635;-89
2020/12/19 18:35:31;;;;;;;82.43;38.17;;;;;;;2.15;88.31;101521.97;5169915;57;21396;-88
2020/12/19 18:40:39;;;;;;;60.60;24.20;;;;;;;2.14;88.17;101532.00;5073511;57;1134541;-86
2020/12/19 18:45:45;;;;;;;110.17;46.57;;;;;;;2.18;88.17;101541.92;5070259;57;1138404;-88
2020/12/19 18:50:50;;;;;;;91.27;42.37;;;;;;;2.23;88.04;101538.30;5079636;57;1140433;-88
2020/12/19 18:55:57;;;;;;;97.03;41.00;;;;;;;2.26;88.00;101540.83;5178780;57;21364;-87
2020/12/19 19:01:03;;;;;;;85.80;40.63;;;;;;;2.32;87.83;101540.65;5178616;57;21293;-88
2020/12/19 19:06:09;;;;;;;75.63;35.20;;;;;;;2.37;88.10;101549.67;5177886;57;21131;-88
2020/12/19 19:11:18;;;;;;;102.73;48.27;;;;;;;2.34;88.53;101547.99;5177864;57;21213;-88
2020/12/19 19:16:24;;;;;;;80.50;36.83;;;;;;;2.35;87.98;101535.35;5155940;57;21151;-87
2020/12/19 19:21:30;;;;;;;84.83;36.27;;;;;;;2.39;88.03;101532.22;5084653;58;1134255;-87
2020/12/19 19:26:35;;;;;;;91.50;41.45;;;;;;;2.42;87.99;101527.77;5039168;58;1140613;-86
2020/12/19 19:31:47;;;;;;;88.27;42.27;;;;;;;2.43;88.04;101540.38;5013976;58;1137237;-87
2020/12/19 19:36:57;;;;;;;78.47;36.87;;;;;;;2.39;88.23;101536.13;5050118;59;21508;-86
2020/12/19 19:42:03;;;;;;;74.37;33.93;;;;;;;2.41;88.15;101530.42;4962438;58;1134204;-86
2020/12/19 19:47:10;;;;;;;70.43;33.17;;;;;;;2.40;87.98;101528.26;4961347;58;1138356;-86
2020/12/19 19:52:18;;;;;;;79.40;39.55;;;;;;;2.43;87.96;101529.48;4959266;58;1140478;-87
2020/12/19 19:57:24;;;;;;;103.27;47.83;;;;;;;2.45;88.00;101524.19;4948885;58;1138270;-86
2020/12/19 20:02:29;;;;;;;91.70;46.03;;;;;;;2.43;87.96;101527.32;4975132;58;1140487;-87
2020/12/19 20:07:35;;;;;;;79.63;38.43;;;;;;;2.47;87.95;101532.39;4950642;58;1138252;-87
2020/12/19 20:12:40;;;;;;;79.17;39.00;;;;;;;2.52;87.77;101534.03;4953743;58;1140846;-82
2020/12/19 20:17:46;;;;;;;85.87;39.57;;;;;;;2.55;87.80;101537.86;4974224;57;1139248;-83
2020/12/19 20:22:51;;;;;;;95.25;44.53;;;;;;;2.52;87.95;101537.94;4993110;57;1138383;-84
2020/12/19 20:27:57;;;;;;;82.10;38.07;;;;;;;2.53;87.66;101537.05;4988459;57;1138715;-84
2020/12/19 20:33:04;;;;;;;104.38;45.00;;;;;;;2.52;87.48;101534.88;5029305;57;1138471;-84
2020/12/19 20:38:09;;;;;;;74.83;34.90;;;;;;;2.54;87.37;101528.31;4988820;57;1142534;-84
2020/12/19 20:43:15;;;;;;;81.03;39.83;;;;;;;2.52;87.57;101529.66;5011729;57;1138498;-84
2020/12/19 20:48:21;;;;;;;73.97;32.80;;;;;;;2.46;87.54;101525.45;4991442;58;1138293;-84
2020/12/19 20:53:27;;;;;;;79.43;36.40;;;;;;;2.46;87.24;101522.84;5069807;58;1136305;-84
2020/12/19 20:58:32;;;;;;;86.80;40.20;;;;;;;2.43;87.10;101532.55;4990537;57;1138323;-84
2020/12/19 21:03:38;;;;;;;101.97;47.97;;;;;;;2.39;87.03;101531.77;4986314;58;1138572;-84
2020/12/19 21:08:43;;;;;;;112.60;51.00;;;;;;;2.30;87.05;101528.08;4989523;57;1141153;-84
2020/12/19 21:13:49;;;;;;;123.87;55.23;;;;;;;2.31;87.12;101539.38;4992792;57;1140328;-84
2020/12/19 21:18:55;;;;;;;114.97;53.47;;;;;;;2.32;87.07;101528.05;4964328;57;1142479;-84
2020/12/19 21:24:11;;;;;;;79.30;36.93;;;;;;;2.23;86.93;101532.22;4954922;58;1140808;-83
2020/12/19 21:29:17;;;;;;;81.40;38.20;;;;;;;2.13;86.97;101542.06;4973577;58;1138599;-84
2020/12/19 21:34:23;;;;;;;80.80;38.00;;;;;;;2.11;87.01;101547.32;4953796;58;1143657;-84
2020/12/19 21:39:29;;;;;;;97.50;44.33;;;;;;;2.18;87.11;101551.05;4973606;58;1138301;-84
2020/12/19 21:44:34;;;;;;;81.50;35.97;;;;;;;2.24;87.04;101551.76;4951328;58;1138307;-84
2020/12/19 21:49:40;;;;;;;82.57;38.87;;;;;;;2.19;87.06;101544.48;4953668;58;1138403;-83
2020/12/19 21:54:45;;;;;;;87.40;37.00;;;;;;;2.12;86.85;101545.56;5046957;59;21074;-84
2020/12/19 21:59:51;;;;;;;91.43;38.17;;;;;;;2.04;86.92;101545.75;5050199;59;21161;-84
2020/12/19 22:04:56;;;;;;;86.60;37.30;;;;;;;1.96;87.04;101549.47;5053006;58;21174;-83
2020/12/19 22:10:02;;;;;;;84.27;36.43;;;;;;;1.92;87.23;101544.77;5051797;59;21135;-83
2020/12/19 22:15:09;;;;;;;80.73;35.30;;;;;;;1.86;87.06;101541.00;5052494;59;21141;-84
2020/12/19 22:20:15;;;;;;;76.50;35.30;;;;;;;1.86;86.96;101559.70;5072490;58;21117;-83
2020/12/19 22:25:21;;;;;;;80.23;34.33;;;;;;;1.91;87.00;101559.16;5089642;57;21393;-84
2020/12/19 22:30:26;;;;;;;87.47;38.30;;;;;;;1.89;86.96;101559.63;5088879;58;21054;-84
2020/12/19 22:35:33;;;;;;;83.40;38.10;;;;;;;1.85;86.98;101560.15;5088496;58;21192;-84
2020/12/19 22:40:38;;;;;;;74.83;35.63;;;;;;;1.83;86.82;101568.48;5084255;58;21187;-83
2020/12/19 22:45:44;;;;;;;87.70;38.90;;;;;;;1.85;86.74;101566.67;5087231;58;21407;-83
2020/12/19 22:50:55;;;;;;;81.57;36.97;;;;;;;1.86;86.67;101563.61;5089961;58;21141;-83
2020/12/19 22:55:57;;;;;;;98.80;44.67;;;;;;;1.76;86.56;101572.98;5086751;58;21134;-84
2020/12/19 23:01:04;;;;;;;88.83;39.20;;;;;;;1.73;86.70;101569.59;5088522;58;21133;-84
2020/12/19 23:06:10;;;;;;;82.07;37.23;;;;;;;1.66;86.44;101573.25;5086667;58;21369;-84
2020/12/19 23:11:16;;;;;;;89.00;42.20;;;;;;;1.60;86.17;101566.42;5090666;58;21313;-84
2020/12/19 23:16:34;;;;;;;89.80;38.83;;;;;;;1.57;86.37;101558.67;5084036;58;21054;-84
2020/12/19 23:21:39;;;;;;;84.93;39.37;;;;;;;1.53;86.44;101562.71;5089477;57;21121;-84
2020/12/19 23:26:45;;;;;;;70.33;33.33;;;;;;;1.55;86.40;101559.15;5088177;58;21298;-84
2020/12/19 23:31:50;;;;;;;79.77;39.33;;;;;;;1.60;86.29;101571.64;5090397;58;21129;-84